Time;durP1;ratioP1;P1;durP2;ratioP2;P2;SDS_P1;SDS_P2;PMS_P1;PMS_P2;Temp;Humidity;BMP_temperature;BMP_pressure;BME280_temperature;BME280_humidity;BME280_pressure;Samples;Min_cycle;Max_cycle;Signal;HPM_P1;HPM_P2
2024/02/29 00:02:07;;;;;;;;;;;6.70;99.60;;;;;;5004657;28;19913;-84
2024/02/29 00:04:34;;;;;;;;;;;6.70;92.80;;;;;;5000328;28;19913;-84
2024/02/29 00:07:00;;;;;;;;;;;6.60;86.20;;;;;;4997412;28;19979;-85
2024/02/29 00:09:25;;;;;;;;;;;7.00;73.50;;;;;;4997189;28;19914;-85
2024/02/29 00:11:51;;;;;;;;;;;6.70;67.70;;;;;;5004975;28;20016;-84
2024/02/29 00:14:17;;;;;;;;;;;6.60;60.40;;;;;;4995180;28;19913;-84
2024/02/29 00:16:44;;;;;;;;;;;6.90;59.50;;;;;;5010152;28;20060;-85
2024/02/29 00:19:10;;;;;;;;;;;7.60;59.80;;;;;;5024575;28;19913;-88
2024/02/29 00:21:36;;;;;;;;;;;6.70;61.10;;;;;;5008228;28;19944;-85
2024/02/29 00:24:01;;;;;;;;;;;6.50;92.00;;;;;;5024987;28;20008;-84
2024/02/29 00:26:27;;;;;;;;;;;7.20;99.90;;;;;;5020848;28;19929;-86
2024/02/29 00:28:52;;;;;;;;;;;7.40;99.90;;;;;;5020988;28;20291;-86
2024/02/29 00:31:18;;;;;;;;;;;6.40;99.90;;;;;;5021809;28;19914;-84
2024/02/29 00:33:43;;;;;;;;;;;6.30;99.90;;;;;;5020952;28;19929;-85
2024/02/29 00:36:08;;;;;;;;;;;6.30;99.90;;;;;;5019083;28;19943;-85
2024/02/29 00:38:34;;;;;;;;;;;6.30;99.90;;;;;;5020190;28;19914;-84
2024/02/29 00:40:59;;;;;;;;;;;6.30;99.90;;;;;;5001539;28;19913;-83
2024/02/29 00:43:25;;;;;;;;;;;6.30;99.90;;;;;;5019229;28;19952;-83
2024/02/29 00:45:52;;;;;;;;;;;6.30;99.90;;;;;;5019324;28;19953;-84
2024/02/29 00:48:17;;;;;;;;;;;6.30;96.30;;;;;;4954265;28;1785827;-84
2024/02/29 00:50:43;;;;;;;;;;;6.30;67.90;;;;;;5020183;28;19925;-84
2024/02/29 00:53:08;;;;;;;;;;;6.30;53.60;;;;;;5002797;28;19919;-84
2024/02/29 00:55:34;;;;;;;;;;;6.30;43.90;;;;;;5019776;28;19913;-85
2024/02/29 00:57:59;;;;;;;;;;;6.20;38.20;;;;;;5001665;28;19924;-83
2024/02/29 01:00:25;;;;;;;;;;;6.20;44.90;;;;;;5020625;28;19967;-84
2024/02/29 01:02:50;;;;;;;;;;;6.20;43.60;;;;;;5018709;28;19913;-84
2024/02/29 01:05:16;;;;;;;;;;;6.20;31.80;;;;;;5002615;28;19913;-84
2024/02/29 01:07:41;;;;;;;;;;;6.20;26.30;;;;;;5021177;28;20418;-85
2024/02/29 01:10:08;;;;;;;;;;;6.20;12.50;;;;;;5023173;28;19984;-86
2024/02/29 01:12:39;;;;;;;;;;;6.10;1.00;;;;;;5026406;28;19917;-85
2024/02/29 01:15:08;;;;;;;;;;;6.10;1.00;;;;;;5020956;28;19913;-85
2024/02/29 01:17:33;;;;;;;;;;;6.10;1.00;;;;;;5008768;28;19940;-85
2024/02/29 01:19:59;;;;;;;;;;;6.10;1.00;;;;;;5023732;28;19913;-86
2024/02/29 01:22:25;;;;;;;;;;;6.00;1.00;;;;;;5003635;28;19921;-85
2024/02/29 01:24:51;;;;;;;;;;;6.00;1.00;;;;;;5021362;28;19943;-85
2024/02/29 01:27:16;;;;;;;;;;;6.00;1.00;;;;;;5005753;28;19952;-85
2024/02/29 01:29:42;;;;;;;;;;;6.00;1.00;;;;;;5021628;28;19920;-86
2024/02/29 01:32:09;;;;;;;;;;;5.90;1.00;;;;;;5023285;28;19964;-85
2024/02/29 01:34:34;;;;;;;;;;;5.90;1.00;;;;;;5022191;28;19914;-85
2024/02/29 01:37:00;;;;;;;;;;;5.90;1.00;;;;;;5023399;28;19952;-86
2024/02/29 01:39:25;;;;;;;;;;;5.90;1.00;;;;;;4999251;28;19914;-85
2024/02/29 01:41:51;;;;;;;;;;;5.90;1.00;;;;;;5022861;28;19913;-86
2024/02/29 01:44:17;;;;;;;;;;;5.80;8.40;;;;;;5008615;28;19918;-85
2024/02/29 01:46:43;;;;;;;;;;;5.80;30.20;;;;;;5025866;28;19965;-83
2024/02/29 01:49:10;;;;;;;;;;;5.80;56.90;;;;;;5005516;28;19918;-84
2024/02/29 01:51:36;;;;;;;;;;;5.80;92.10;;;;;;5021749;28;20341;-85
2024/02/29 01:54:01;;;;;;;;;;;5.60;99.90;;;;;;5022413;28;19964;-85
2024/02/29 01:56:27;;;;;;;;;;;5.60;99.90;;;;;;5018451;28;19917;-86
2024/02/29 01:58:55;;;;;;;;;;;5.60;99.90;;;;;;5019782;28;19914;-84
2024/02/29 02:01:20;;;;;;;;;;;5.60;86.80;;;;;;5010288;28;19914;-84
2024/02/29 02:03:46;;;;;;;;;;;5.60;70.00;;;;;;5002661;28;20295;-83
2024/02/29 02:06:11;;;;;;;;;;;5.60;50.50;;;;;;5019820;28;19913;-85
2024/02/29 02:08:37;;;;;;;;;;;5.60;36.80;;;;;;5003041;28;19937;-84
2024/02/29 02:11:02;;;;;;;;;;;5.70;20.00;;;;;;5002074;28;20306;-85
2024/02/29 02:13:28;;;;;;;;;;;5.60;13.20;;;;;;5019175;28;20000;-86
2024/02/29 02:15:53;;;;;;;;;;;5.60;5.30;;;;;;5018584;28;19914;-84
2024/02/29 02:18:19;;;;;;;;;;;5.60;7.90;;;;;;5017350;28;20279;-85
2024/02/29 02:20:45;;;;;;;;;;;5.60;10.20;;;;;;5017780;28;19913;-85
2024/02/29 02:23:11;;;;;;;;;;;5.60;8.80;;;;;;4999674;28;19972;-85
2024/02/29 02:25:36;;;;;;;;;;;5.60;10.00;;;;;;5000354;28;19965;-86
2024/02/29 02:28:02;;;;;;;;;;;5.60;7.10;;;;;;5017815;28;19924;-84
2024/02/29 02:30:27;;;;;;;;;;;5.60;3.30;;;;;;5016146;28;19918;-85
2024/02/29 02:32:52;;;;;;;;;;;5.60;8.70;;;;;;5015987;28;20399;-84
2024/02/29 02:35:18;;;;;;;;;;;5.50;25.50;;;;;;5015747;28;20014;-83
2024/02/29 02:37:43;;;;;;;;;;;5.50;58.40;;;;;;4997066;28;19920;-82
2024/02/29 02:40:10;;;;;;;;;;;5.50;95.50;;;;;;5013315;28;19914;-83
2024/02/29 02:42:35;;;;;;;;;;;5.40;99.90;;;;;;5005909;28;19914;-83
2024/02/29 02:45:01;;;;;;;;;;;5.40;99.90;;;;;;5012845;28;20387;-83
2024/02/29 02:47:26;;;;;;;;;;;5.40;99.90;;;;;;5014207;28;19921;-84
2024/02/29 02:49:52;;;;;;;;;;;5.30;99.90;;;;;;5014242;28;19917;-83
2024/02/29 02:52:18;;;;;;;;;;;5.30;99.90;;;;;;4996029;28;19918;-83
2024/02/29 02:54:43;;;;;;;;;;;5.30;99.90;;;;;;5013417;28;20547;-83
2024/02/29 02:57:09;;;;;;;;;;;5.30;99.90;;;;;;4996292;28;19920;-83
2024/02/29 02:59:35;;;;;;;;;;;5.30;99.90;;;;;;5014586;28;20000;-84
2024/02/29 03:02:00;;;;;;;;;;;5.30;99.90;;;;;;4996922;28;19913;-86
2024/02/29 03:04:25;;;;;;;;;;;5.30;1.00;;;;;;5012913;28;20427;-84
2024/02/29 03:06:51;;;;;;;;;;;5.30;1.00;;;;;;5012969;28;19918;-84
2024/02/29 03:09:17;;;;;;;;;;;5.30;1.00;;;;;;5014003;28;19952;-84
2024/02/29 03:11:43;;;;;;;;;;;5.30;1.00;;;;;;5013903;28;19985;-83
2024/02/29 03:14:09;;;;;;;;;;;5.40;1.00;;;;;;5011686;28;20438;-84
2024/02/29 03:16:35;;;;;;;;;;;5.40;1.00;;;;;;5013772;28;19921;-83
2024/02/29 03:19:00;;;;;;;;;;;5.40;1.00;;;;;;4996141;28;19953;-84
2024/02/29 03:21:27;;;;;;;;;;;5.40;1.00;;;;;;5019677;28;19981;-85
2024/02/29 03:23:53;;;;;;;;;;;5.40;1.00;;;;;;5019515;28;19981;-85
2024/02/29 03:26:19;;;;;;;;;;;5.40;1.00;;;;;;5003519;28;19944;-85
2024/02/29 03:28:44;;;;;;;;;;;5.30;1.00;;;;;;5019142;28;20254;-85
2024/02/29 03:31:10;;;;;;;;;;;5.30;1.00;;;;;;5019852;28;19921;-85
2024/02/29 03:33:36;;;;;;;;;;;5.20;1.00;;;;;;5019560;28;19914;-86
2024/02/29 03:36:01;;;;;;;;;;;5.20;1.00;;;;;;5017664;28;19913;-84
2024/02/29 03:38:26;;;;;;;;;;;5.10;20.10;;;;;;5020054;28;19961;-85
2024/02/29 03:40:52;;;;;;;;;;;5.10;99.90;;;;;;5018119;28;19948;-85
2024/02/29 03:43:18;;;;;;;;;;;5.00;99.90;;;;;;5016764;28;19924;-84
2024/02/29 03:45:43;;;;;;;;;;;5.10;99.90;;;;;;5002464;28;19940;-85
2024/02/29 03:48:09;;;;;;;;;;;5.10;99.90;;;;;;5004215;28;19918;-87
2024/02/29 03:50:34;;;;;;;;;;;5.10;99.90;;;;;;5023193;28;19953;-83
2024/02/29 03:52:59;;;;;;;;;;;5.10;99.90;;;;;;5004966;28;19921;-87
2024/02/29 03:55:25;;;;;;;;;;;5.10;99.90;;;;;;5020804;28;19967;-85
2024/02/29 03:57:51;;;;;;;;;;;5.00;99.90;;;;;;5020896;28;19920;-83
2024/02/29 04:00:17;;;;;;;;;;;5.00;99.90;;;;;;5021340;28;19940;-85
2024/02/29 04:02:43;;;;;;;;;;;5.00;1.00;;;;;;5022550;28;20312;-83
2024/02/29 04:05:08;;;;;;;;;;;5.00;1.00;;;;;;5019226;28;20371;-84
2024/02/29 04:07:37;;;;;;;;;;;4.90;1.00;;;;;;5023102;28;19917;-84
2024/02/29 04:10:03;;;;;;;;;;;4.90;33.40;;;;;;5003201;28;19913;-83
2024/02/29 04:12:29;;;;;;;;;;;4.80;99.90;;;;;;5021397;28;20032;-88
2024/02/29 04:14:55;;;;;;;;;;;4.80;1.00;;;;;;5020596;28;19941;-84
2024/02/29 04:17:20;;;;;;;;;;;4.70;99.90;;;;;;5020183;28;19920;-84
2024/02/29 04:19:46;;;;;;;;;;;4.70;1.00;;;;;;5021678;28;19918;-85
2024/02/29 04:22:13;;;;;;;;;;;4.60;99.90;;;;;;5021877;28;19914;-87
2024/02/29 04:24:38;;;;;;;;;;;4.70;1.00;;;;;;5018378;28;20326;-85
2024/02/29 04:27:04;;;;;;;;;;;4.60;1.00;;;;;;5022093;28;19918;-84
2024/02/29 04:29:29;;;;;;;;;;;4.50;50.00;;;;;;5020494;28;19920;-85
2024/02/29 04:31:55;;;;;;;;;;;4.50;99.90;;;;;;5022013;28;19921;-86
2024/02/29 04:34:20;;;;;;;;;;;4.40;1.00;;;;;;5023765;28;19913;-85
2024/02/29 04:36:46;;;;;;;;;;;4.40;1.00;;;;;;5024687;28;19956;-85
2024/02/29 04:39:11;;;;;;;;;;;4.40;1.00;;;;;;5023484;28;19913;-86
2024/02/29 04:41:37;;;;;;;;;;;4.40;5.10;;;;;;5023922;28;20001;-85
2024/02/29 04:44:02;;;;;;;;;;;4.40;50.50;;;;;;5023670;28;20012;-86
2024/02/29 04:46:27;;;;;;;;;;;4.40;45.80;;;;;;4999721;28;19914;-86
2024/02/29 04:48:53;;;;;;;;;;;4.40;99.90;;;;;;5004944;28;19917;-86
2024/02/29 04:51:18;;;;;;;;;;;4.30;99.90;;;;;;5023063;28;19913;-84
2024/02/29 04:53:44;;;;;;;;;;;4.30;99.90;;;;;;5025128;28;19913;-87
2024/02/29 04:56:09;;;;;;;;;;;5.00;99.90;;;;;;5005321;28;19941;-85
2024/02/29 04:58:35;;;;;;;;;;;4.20;1.00;;;;;;5022561;28;19921;-86
2024/02/29 05:01:01;;;;;;;;;;;4.20;1.00;;;;;;5005783;28;19940;-85
2024/02/29 05:03:27;;;;;;;;;;;4.20;1.00;;;;;;5005013;28;19917;-86
2024/02/29 05:05:52;;;;;;;;;;;4.10;1.00;;;;;;5005504;28;19918;-86
2024/02/29 05:08:18;;;;;;;;;;;4.10;13.10;;;;;;5006936;28;19917;-85
2024/02/29 05:10:43;;;;;;;;;;;4.10;72.50;;;;;;5005923;28;20000;-88
2024/02/29 05:13:09;;;;;;;;;;;4.20;99.90;;;;;;5023268;28;20303;-87
2024/02/29 05:15:35;;;;;;;;;;;4.20;78.40;;;;;;5024021;28;20376;-85
2024/02/29 05:18:02;;;;;;;;;;;4.20;23.70;;;;;;5029220;28;20013;-87
2024/02/29 05:20:28;;;;;;;;;;;4.30;5.10;;;;;;5027969;28;19914;-84
2024/02/29 05:22:54;;;;;;;;;;;4.20;1.00;;;;;;4995885;28;19920;-84
2024/02/29 05:25:20;;;;;;;;;;;4.20;12.30;;;;;;5020051;28;21228;-86
2024/02/29 05:27:45;;;;;;;;;;;4.20;35.90;;;;;;5018354;28;20306;-84
2024/02/29 05:30:11;;;;;;;;;;;4.20;51.50;;;;;;5018691;28;19913;-84
2024/02/29 05:32:37;;;;;;;;;;;4.20;99.20;;;;;;5001410;28;19993;-84
2024/02/29 05:35:03;;;;;;;;;;;4.20;99.90;;;;;;5001512;28;20383;-85
2024/02/29 05:37:29;;;;;;;;;;;4.20;99.90;;;;;;5017967;28;19940;-84
2024/02/29 05:39:58;;;;;;;;;;;4.10;99.90;;;;;;4998938;28;20004;-84
2024/02/29 05:42:26;;;;;;;;;;;4.10;99.90;;;;;;5015598;28;20334;-84
2024/02/29 05:44:51;;;;;;;;;;;4.20;99.90;;;;;;5015887;28;19913;-84
2024/02/29 05:47:18;;;;;;;;;;;4.20;99.90;;;;;;4998287;28;19991;-85
2024/02/29 05:49:43;;;;;;;;;;;4.20;99.90;;;;;;5015334;28;19972;-83
2024/02/29 05:52:09;;;;;;;;;;;4.20;99.90;;;;;;5015589;28;19917;-85
2024/02/29 05:54:34;;;;;;;;;;;4.30;99.90;;;;;;5017229;28;19922;-83
2024/02/29 05:57:00;;;;;;;;;;;4.40;99.90;;;;;;4995224;28;19918;-84
2024/02/29 05:59:25;;;;;;;;;;;4.40;99.90;;;;;;5015234;28;19920;-86
2024/02/29 06:01:51;;;;;;;;;;;4.40;99.90;;;;;;4999927;28;20295;-84
2024/02/29 06:04:16;;;;;;;;;;;4.50;99.90;;;;;;4998642;28;20011;-85
2024/02/29 06:06:42;;;;;;;;;;;4.50;99.90;;;;;;5016202;28;19917;-85
2024/02/29 06:09:12;;;;;;;;;;;4.50;99.90;;;;;;5018387;28;19983;-85
2024/02/29 06:11:38;;;;;;;;;;;4.50;99.90;;;;;;5015878;28;19945;-84
2024/02/29 06:14:03;;;;;;;;;;;4.60;99.90;;;;;;5016505;28;19921;-84
2024/02/29 06:16:28;;;;;;;;;;;4.60;94.40;;;;;;5014487;28;19959;-84
2024/02/29 06:18:54;;;;;;;;;;;4.60;34.10;;;;;;5015442;28;19920;-87
2024/02/29 06:21:19;;;;;;;;;;;4.70;22.80;;;;;;5010120;28;19914;-85
2024/02/29 06:23:45;;;;;;;;;;;4.80;52.10;;;;;;5016185;28;19913;-83
2024/02/29 06:26:11;;;;;;;;;;;4.80;36.00;;;;;;5021564;28;19941;-87
2024/02/29 06:28:37;;;;;;;;;;;5.00;1.00;;;;;;5005372;28;19961;-86
2024/02/29 06:31:02;;;;;;;;;;;5.10;1.00;;;;;;5005737;28;19920;-85
2024/02/29 06:33:28;;;;;;;;;;;5.20;1.00;;;;;;5019961;28;19913;-85
2024/02/29 06:35:53;;;;;;;;;;;5.30;1.00;;;;;;5022362;28;19936;-87
2024/02/29 06:38:19;;;;;;;;;;;5.40;99.90;;;;;;5015602;28;20021;-85
2024/02/29 06:40:45;;;;;;;;;;;5.60;99.90;;;;;;5017149;28;19913;-84
2024/02/29 06:43:10;;;;;;;;;;;5.60;93.50;;;;;;5020685;28;19910;-86
2024/02/29 06:45:36;;;;;;;;;;;5.70;99.90;;;;;;5001941;28;20385;-86
2024/02/29 06:48:03;;;;;;;;;;;5.70;99.90;;;;;;5019844;28;19970;-86
2024/02/29 06:50:29;;;;;;;;;;;5.90;96.60;;;;;;5021161;28;19996;-85
2024/02/29 06:52:56;;;;;;;;;;;5.90;99.90;;;;;;5019955;28;19936;-86
2024/02/29 06:55:21;;;;;;;;;;;6.00;1.00;;;;;;5019118;28;19909;-86
2024/02/29 06:57:47;;;;;;;;;;;6.00;99.90;;;;;;5015983;28;19917;-84
2024/02/29 07:00:13;;;;;;;;;;;6.10;1.00;;;;;;4999403;28;19917;-85
2024/02/29 07:02:38;;;;;;;;;;;6.20;99.90;;;;;;5010534;28;19933;-85
2024/02/29 07:05:04;;;;;;;;;;;6.40;1.00;;;;;;5018452;28;20447;-85
2024/02/29 07:07:30;;;;;;;;;;;6.80;1.00;;;;;;5021325;28;19917;-85
2024/02/29 07:09:56;;;;;;;;;;;7.50;99.90;;;;;;5022848;28;19916;-85
2024/02/29 07:12:22;;;;;;;;;;;7.60;1.00;;;;;;5018370;28;19956;-84
2024/02/29 07:14:47;;;;;;;;;;;7.60;1.00;;;;;;5017853;28;19921;-85
2024/02/29 07:17:13;;;;;;;;;;;7.50;1.00;;;;;;5016247;28;20049;-83
2024/02/29 07:19:39;;;;;;;;;;;7.50;1.00;;;;;;5016067;28;19916;-85
2024/02/29 07:22:04;;;;;;;;;;;7.50;1.00;;;;;;5015707;28;19914;-83
2024/02/29 07:24:31;;;;;;;;;;;7.50;1.00;;;;;;5018740;28;19932;-85
2024/02/29 07:26:57;;;;;;;;;;;7.40;1.00;;;;;;5017037;28;19917;-85
2024/02/29 07:29:22;;;;;;;;;;;7.40;1.00;;;;;;5018626;28;19932;-85
2024/02/29 07:31:49;;;;;;;;;;;7.40;1.00;;;;;;5016366;28;19909;-85
2024/02/29 07:34:16;;;;;;;;;;;7.40;1.00;;;;;;5015831;28;19955;-85
2024/02/29 07:36:42;;;;;;;;;;;7.50;99.90;;;;;;5018421;28;20000;-84
2024/02/29 07:39:07;;;;;;;;;;;7.60;99.70;;;;;;5013191;28;19967;-85
2024/02/29 07:41:33;;;;;;;;;;;7.60;99.90;;;;;;5017227;28;19909;-85
2024/02/29 07:43:58;;;;;;;;;;;7.70;87.10;;;;;;5017715;28;19910;-85
2024/02/29 07:46:24;;;;;;;;;;;7.80;59.40;;;;;;4996842;28;19910;-84
2024/02/29 07:48:49;;;;;;;;;;;7.90;99.90;;;;;;5019413;28;19913;-84
2024/02/29 07:51:18;;;;;;;;;;;8.00;1.00;;;;;;5016394;28;19952;-86
2024/02/29 07:53:43;;;;;;;;;;;8.20;1.00;;;;;;5015684;28;19964;-84
2024/02/29 07:56:09;;;;;;;;;;;8.10;1.00;;;;;;5016041;28;19913;-84
2024/02/29 07:58:34;;;;;;;;;;;8.00;1.00;;;;;;5019405;28;19909;-85
2024/02/29 08:01:00;;;;;;;;;;;8.00;1.00;;;;;;5020079;28;19992;-85
2024/02/29 08:03:25;;;;;;;;;;;8.00;1.00;;;;;;5010716;28;19917;-86
2024/02/29 08:05:51;;;;;;;;;;;8.00;48.30;;;;;;4990353;28;19928;-84
2024/02/29 08:08:16;;;;;;;;;;;8.10;73.30;;;;;;4999841;28;20275;-84
2024/02/29 08:10:43;;;;;;;;;;;8.20;99.90;;;;;;5011695;28;19909;-85
2024/02/29 08:13:08;;;;;;;;;;;8.40;1.00;;;;;;5019147;28;19932;-86
2024/02/29 08:15:34;;;;;;;;;;;8.70;1.00;;;;;;5020764;28;19944;-83
2024/02/29 08:17:59;;;;;;;;;;;9.00;99.90;;;;;;5020490;28;20557;-85
2024/02/29 08:20:25;;;;;;;;;;;9.10;99.90;;;;;;4996485;28;19917;-85
2024/02/29 08:22:54;;;;;;;;;;;9.20;99.90;;;;;;5014921;28;19909;-86
2024/02/29 08:25:21;;;;;;;;;;;9.40;99.90;;;;;;5009513;28;19909;-85
2024/02/29 08:27:46;;;;;;;;;;;9.50;99.90;;;;;;5013757;28;19963;-85
2024/02/29 08:30:12;;;;;;;;;;;9.60;99.90;;;;;;5015485;28;19909;-85
2024/02/29 08:32:38;;;;;;;;;;;9.70;99.90;;;;;;5015500;28;19909;-84
2024/02/29 08:35:04;;;;;;;;;;;9.70;99.90;;;;;;5017017;28;19905;-85
2024/02/29 08:37:29;;;;;;;;;;;9.80;99.90;;;;;;5017256;28;20398;-86
2024/02/29 08:39:55;;;;;;;;;;;9.80;53.90;;;;;;5018934;28;20330;-85
2024/02/29 08:42:20;;;;;;;;;;;9.90;29.70;;;;;;5021145;28;19906;-86
2024/02/29 08:44:47;;;;;;;;;;;9.80;15.10;;;;;;5025824;28;19909;-86
2024/02/29 08:47:12;;;;;;;;;;;9.70;48.30;;;;;;5021776;28;19968;-83
2024/02/29 08:49:38;;;;;;;;;;;9.60;99.90;;;;;;5019311;28;19920;-83
2024/02/29 08:52:04;;;;;;;;;;;9.60;99.90;;;;;;5003849;28;19920;-83
2024/02/29 08:54:29;;;;;;;;;;;9.60;99.90;;;;;;5028753;28;19909;-84
2024/02/29 08:56:56;;;;;;;;;;;9.60;99.90;;;;;;5034016;28;19909;-86
2024/02/29 08:59:21;;;;;;;;;;;9.70;99.90;;;;;;5023990;28;19905;-85
2024/02/29 09:01:47;;;;;;;;;;;9.70;99.90;;;;;;5016529;28;19917;-85
2024/02/29 09:04:12;;;;;;;;;;;9.80;99.90;;;;;;4996625;28;19909;-85
2024/02/29 09:06:38;;;;;;;;;;;9.80;99.90;;;;;;5015857;28;19909;-84
2024/02/29 09:09:03;;;;;;;;;;;9.80;99.90;;;;;;5011725;28;20004;-84
2024/02/29 09:11:29;;;;;;;;;;;9.70;99.90;;;;;;5018646;28;19916;-84
2024/02/29 09:13:56;;;;;;;;;;;9.70;99.90;;;;;;5015501;28;19909;-84
2024/02/29 09:16:22;;;;;;;;;;;9.60;99.90;;;;;;5015303;28;19914;-82
2024/02/29 09:18:47;;;;;;;;;;;9.70;1.00;;;;;;5013826;28;19921;-85
2024/02/29 09:21:13;;;;;;;;;;;9.80;99.90;;;;;;5017937;28;19916;-84
2024/02/29 09:23:39;;;;;;;;;;;9.80;99.90;;;;;;5015192;28;19913;-85
2024/02/29 09:26:04;;;;;;;;;;;9.80;99.90;;;;;;5004903;28;19905;-83
2024/02/29 09:28:30;;;;;;;;;;;10.00;99.90;;;;;;5024508;28;19921;-86
2024/02/29 09:30:55;;;;;;;;;;;10.00;99.90;;;;;;5024965;28;19909;-85
2024/02/29 09:33:20;;;;;;;;;;;10.00;99.90;;;;;;5021518;28;19963;-85
2024/02/29 09:35:46;;;;;;;;;;;10.10;99.90;;;;;;5021187;28;19922;-85
2024/02/29 09:38:11;;;;;;;;;;;10.10;99.90;;;;;;5019800;28;19909;-83
2024/02/29 09:40:37;;;;;;;;;;;10.10;99.90;;;;;;5022658;28;19944;-84
2024/02/29 09:43:03;;;;;;;;;;;10.10;99.90;;;;;;5021092;28;19916;-84
2024/02/29 09:45:29;;;;;;;;;;;10.10;99.90;;;;;;5021409;28;19972;-86
2024/02/29 09:47:55;;;;;;;;;;;10.20;99.90;;;;;;5020507;28;19960;-85
2024/02/29 09:50:21;;;;;;;;;;;10.20;99.90;;;;;;5020465;28;19913;-85
2024/02/29 09:52:48;;;;;;;;;;;10.20;99.90;;;;;;5021164;28;19920;-85
2024/02/29 09:55:15;;;;;;;;;;;10.20;99.90;;;;;;5000222;28;20019;-84
2024/02/29 09:57:41;;;;;;;;;;;10.30;99.90;;;;;;5021579;28;19925;-85
2024/02/29 10:00:10;;;;;;;;;;;10.40;99.90;;;;;;5022640;28;20394;-84
2024/02/29 10:02:36;;;;;;;;;;;10.40;99.90;;;;;;5022712;28;19955;-86
2024/02/29 10:05:02;;;;;;;;;;;10.50;99.90;;;;;;5017644;28;19916;-84
2024/02/29 10:07:28;;;;;;;;;;;10.60;96.50;;;;;;5005106;28;19910;-86
2024/02/29 10:09:54;;;;;;;;;;;10.70;57.80;;;;;;5005540;28;19906;-85
2024/02/29 10:12:20;;;;;;;;;;;10.90;17.00;;;;;;5023025;28;19905;-86
2024/02/29 10:14:46;;;;;;;;;;;11.10;5.10;;;;;;5021790;28;19913;-84
2024/02/29 10:17:12;;;;;;;;;;;11.40;1.00;;;;;;5001144;28;19905;-85
2024/02/29 10:19:40;;;;;;;;;;;11.70;1.00;;;;;;5015194;28;19909;-85
2024/02/29 10:22:06;;;;;;;;;;;12.00;1.00;;;;;;5009316;28;19914;-85
2024/02/29 10:24:32;;;;;;;;;;;12.40;1.00;;;;;;5015430;28;19911;-83
2024/02/29 10:27:04;;;;;;;;;;;13.20;1.00;;;;;;5014672;28;19919;-84
2024/02/29 10:29:29;;;;;;;;;;;13.80;1.00;;;;;;5007034;28;19909;-84
2024/02/29 10:31:58;;;;;;;;;;;14.10;1.00;;;;;;5014354;28;19917;-85
2024/02/29 10:34:24;;;;;;;;;;;14.20;99.90;;;;;;5010230;28;19916;-84
2024/02/29 10:36:49;;;;;;;;;;;14.20;99.90;;;;;;5014558;28;19909;-84
2024/02/29 10:39:15;;;;;;;;;;;14.20;99.90;;;;;;4995259;28;19910;-84
2024/02/29 10:41:47;;;;;;;;;;;14.40;99.90;;;;;;5016526;28;19931;-84
2024/02/29 10:44:13;;;;;;;;;;;14.60;99.90;;;;;;5015231;28;19917;-85
2024/02/29 10:46:40;;;;;;;;;;;15.00;99.90;;;;;;5018993;28;19909;-85
2024/02/29 10:49:08;;;;;;;;;;;15.40;99.90;;;;;;5016784;28;20264;-86
2024/02/29 10:51:44;;;;;;;;;;;15.70;99.90;;;;;;5014058;28;20471;-85
2024/02/29 10:54:12;;;;;;;;;;;15.80;99.90;;;;;;5013711;28;19910;-85
2024/02/29 10:56:38;;;;;;;;;;;15.90;99.90;;;;;;5007620;28;20359;-84
2024/02/29 10:59:10;;;;;;;;;;;15.80;99.90;;;;;;5015116;28;19916;-83
2024/02/29 11:01:37;;;;;;;;;;;15.60;99.90;;;;;;5012542;28;19913;-84
2024/02/29 11:04:02;;;;;;;;;;;15.60;99.90;;;;;;5022464;28;19909;-87
2024/02/29 11:06:34;;;;;;;;;;;15.50;99.90;;;;;;5002175;28;20189;-85
2024/02/29 11:09:02;;;;;;;;;;;15.40;99.90;;;;;;5019604;28;20008;-86
2024/02/29 11:11:28;;;;;;;;;;;15.10;99.90;;;;;;5016953;28;19933;-85
2024/02/29 11:14:05;;;;;;;;;;;14.80;99.90;;;;;;4997506;28;19910;-86
2024/02/29 11:16:32;;;;;;;;;;;14.80;99.90;;;;;;5010932;28;19951;-85
2024/02/29 11:19:03;;;;;;;;;;;14.60;99.90;;;;;;5017076;28;19917;-84
2024/02/29 11:21:29;;;;;;;;;;;14.60;99.90;;;;;;5016050;28;19968;-85
2024/02/29 11:24:00;;;;;;;;;;;14.60;99.90;;;;;;5019249;28;19932;-86
2024/02/29 11:26:52;;;;;;;;;;;14.40;99.90;;;;;;4998405;28;19948;-86
2024/02/29 11:29:19;;;;;;;;;;;14.30;99.90;;;;;;5011613;28;20506;-83
2024/02/29 11:31:47;;;;;;;;;;;14.10;99.90;;;;;;5002845;28;19963;-85
2024/02/29 11:34:13;;;;;;;;;;;14.10;99.90;;;;;;5018399;28;19955;-84
2024/02/29 11:36:39;;;;;;;;;;;14.10;99.90;;;;;;5017889;28;19941;-86
2024/02/29 11:39:09;;;;;;;;;;;14.10;99.90;;;;;;5019189;28;19967;-84
2024/02/29 11:41:35;;;;;;;;;;;14.10;99.90;;;;;;5017767;28;21555;-83
2024/02/29 11:44:00;;;;;;;;;;;14.10;99.90;;;;;;5008442;28;19910;-84
2024/02/29 11:46:26;;;;;;;;;;;14.10;99.90;;;;;;5005431;28;19913;-84
2024/02/29 11:48:52;;;;;;;;;;;14.10;99.90;;;;;;5017964;28;19914;-85
2024/02/29 11:51:17;;;;;;;;;;;14.10;99.90;;;;;;5019779;28;20382;-85
2024/02/29 11:53:43;;;;;;;;;;;14.10;99.90;;;;;;5039543;22;19936;-83
2024/02/29 11:56:09;;;;;;;;;;;14.10;99.90;;;;;;5029413;28;19913;-80
2024/02/29 11:58:35;;;;;;;;;;;14.10;99.90;;;;;;5028447;28;20371;-82
2024/02/29 12:01:00;;;;;;;;;;;14.00;99.90;;;;;;5016634;28;19909;-82
2024/02/29 12:03:27;;;;;;;;;;;14.00;99.90;;;;;;5026733;28;19973;-83
2024/02/29 12:05:53;;;;;;;;;;;14.00;99.90;;;;;;5028055;28;19909;-81
2024/02/29 12:08:18;;;;;;;;;;;14.00;99.90;;;;;;5019387;28;19951;-81
2024/02/29 12:10:44;;;;;;;;;;;14.00;99.90;;;;;;5018804;28;19909;-82
2024/02/29 12:13:10;;;;;;;;;;;14.00;99.90;;;;;;5027270;28;20004;-81
2024/02/29 12:15:37;;;;;;;;;;;14.00;99.90;;;;;;5014865;28;19916;-80
2024/02/29 12:18:05;;;;;;;;;;;14.00;99.90;;;;;;5018276;28;19941;-84
2024/02/29 12:20:30;;;;;;;;;;;14.10;99.90;;;;;;5033808;28;19910;-83
2024/02/29 12:22:59;;;;;;;;;;;14.10;99.90;;;;;;5026476;28;20386;-82
2024/02/29 12:25:25;;;;;;;;;;;14.20;99.90;;;;;;5029299;28;19928;-84
2024/02/29 12:27:51;;;;;;;;;;;14.30;99.90;;;;;;5021784;28;19980;-82
2024/02/29 12:30:18;;;;;;;;;;;14.40;99.90;;;;;;5031273;28;19992;-83
2024/02/29 12:32:43;;;;;;;;;;;14.40;99.90;;;;;;5035328;28;19905;-83
2024/02/29 12:35:08;;;;;;;;;;;14.50;99.90;;;;;;5028692;28;19963;-84
2024/02/29 12:37:42;;;;;;;;;;;14.60;99.90;;;;;;5027384;28;19968;-83
2024/02/29 12:40:08;;;;;;;;;;;14.70;99.90;;;;;;5028423;28;20283;-83
2024/02/29 12:42:34;;;;;;;;;;;14.80;99.90;;;;;;5021303;28;19905;-84
2024/02/29 12:44:59;;;;;;;;;;;15.00;99.90;;;;;;5009018;28;19936;-83
2024/02/29 12:47:25;;;;;;;;;;;15.10;99.90;;;;;;5033574;28;20051;-82
2024/02/29 12:49:50;;;;;;;;;;;15.20;99.90;;;;;;5003049;28;19909;-82
2024/02/29 12:52:16;;;;;;;;;;;15.30;99.90;;;;;;5026782;28;20367;-84
2024/02/29 12:54:42;;;;;;;;;;;15.30;99.90;;;;;;5029016;28;19929;-83
2024/02/29 12:57:07;;;;;;;;;;;15.40;99.90;;;;;;5020886;28;19905;-84
2024/02/29 12:59:33;;;;;;;;;;;15.40;99.90;;;;;;5019472;28;19991;-85
2024/02/29 13:01:59;;;;;;;;;;;15.40;99.90;;;;;;5028596;28;19909;-87
2024/02/29 13:04:25;;;;;;;;;;;15.40;99.90;;;;;;5023567;28;19940;-82
2024/02/29 13:06:51;;;;;;;;;;;15.40;99.90;;;;;;5031934;28;20008;-84
2024/02/29 13:09:19;;;;;;;;;;;15.40;99.90;;;;;;5030905;28;19905;-83
2024/02/29 13:11:47;;;;;;;;;;;15.40;99.90;;;;;;5035273;28;19909;-83
2024/02/29 13:14:13;;;;;;;;;;;15.50;99.90;;;;;;5011193;28;19909;-83
2024/02/29 13:16:38;;;;;;;;;;;15.50;99.90;;;;;;5020903;28;19909;-80
2024/02/29 13:19:04;;;;;;;;;;;15.60;99.90;;;;;;5024609;28;20271;-82
2024/02/29 13:21:30;;;;;;;;;;;15.70;99.90;;;;;;5033190;28;20327;-84
2024/02/29 13:23:56;;;;;;;;;;;15.80;99.90;;;;;;5027746;28;19917;-83
2024/02/29 13:26:22;;;;;;;;;;;15.90;99.90;;;;;;5002550;28;19932;-82
2024/02/29 13:28:48;;;;;;;;;;;16.00;99.90;;;;;;5028839;28;19952;-82
2024/02/29 13:31:14;;;;;;;;;;;16.00;99.90;;;;;;5029093;28;19972;-83
2024/02/29 13:33:39;;;;;;;;;;;16.00;99.90;;;;;;5030783;28;19909;-81
2024/02/29 13:36:05;;;;;;;;;;;16.00;99.90;;;;;;5024676;28;19944;-82
2024/02/29 13:38:30;;;;;;;;;;;16.10;99.90;;;;;;5022907;28;20019;-83
2024/02/29 13:40:56;;;;;;;;;;;16.10;99.90;;;;;;5016868;28;19910;-81
2024/02/29 13:43:21;;;;;;;;;;;16.00;99.90;;;;;;5033743;28;19911;-84
2024/02/29 13:45:47;;;;;;;;;;;15.90;99.90;;;;;;5017859;28;19913;-85
2024/02/29 13:48:13;;;;;;;;;;;15.80;99.90;;;;;;5001538;28;19910;-82
2024/02/29 13:51:42;;;;;;;;;;;15.80;99.90;;;;;;5092871;27;1984542;-84
2024/02/29 13:54:08;;;;;;;;;;;15.60;99.90;;;;;;5142870;27;19911;-83
2024/02/29 13:56:33;;;;;;;;;;;15.50;99.90;;;;;;5136840;27;19933;-85
2024/02/29 13:58:59;;;;;;;;;;;15.50;99.90;;;;;;5136454;27;19907;-84
2024/02/29 14:01:24;;;;;;;;;;;15.50;99.90;;;;;;5144213;27;20384;-84
2024/02/29 14:03:50;;;;;;;;;;;15.40;99.90;;;;;;5121175;28;20044;-84
2024/02/29 14:06:16;;;;;;;;;;;15.40;99.90;;;;;;5131969;27;19907;-85
2024/02/29 14:08:42;;;;;;;;;;;15.50;99.90;;;;;;5134070;27;19903;-85
2024/02/29 14:11:07;;;;;;;;;;;15.60;99.90;;;;;;5141342;27;19911;-83
2024/02/29 14:13:34;;;;;;;;;;;15.80;99.90;;;;;;5123184;27;20257;-85
2024/02/29 14:16:00;;;;;;;;;;;16.10;99.90;;;;;;5136603;27;19946;-85
2024/02/29 14:18:25;;;;;;;;;;;16.20;99.90;;;;;;5142228;27;19983;-84
2024/02/29 14:20:51;;;;;;;;;;;16.40;99.90;;;;;;5120140;27;19915;-83
2024/02/29 14:23:17;;;;;;;;;;;16.50;99.90;;;;;;5135910;27;19904;-85